Terminal Aerodrome Forecast
Issued by NWS

Home | Current Version | Previous Version | Text Only | Print | Product List | Glossary On
Versions: 1 2 3 4 5 6 7 8 9 10 11 12 13 14 15 16 17 18 19 20 21 22 23 24 25 26 27 28 29 30 31 32 33 34 35 36
000
FTUS46 KSGX 030520
TAFSAN
TAF
KSAN 030520Z 0306/0412 30006KT P6SM FEW010
     FM030700 VRB03KT 6SM BR OVC008
     FM031600 VRB05KT P6SM BKN010
     FM031800 29010KT P6SM FEW012
     FM040200 VRB05KT P6SM SCT011
     FM040400 VRB04KT P6SM OVC010=

USA.gov is the U.S. government's official web portal to all federal, state and local government web resources and services.